Time;durP1;ratioP1;P1;durP2;ratioP2;P2;SDS_P1;SDS_P2;PMS_P1;PMS_P2;Temp;Humidity;BMP_temperature;BMP_pressure;BME280_temperature;BME280_humidity;BME280_pressure;Samples;Min_cycle;Max_cycle;Signal;HPM_P1;HPM_P2
2022/01/27 00:04:47;;;;;;;24.85;11.45;;;;;;;;;;5987973;23;20034;-88
2022/01/27 00:07:13;;;;;;;18.52;9.65;;;;;;;;;;5987993;23;20015;-88
2022/01/27 00:12:08;;;;;;;23.35;11.35;;;;;;;;;;5988577;23;20113;-88
2022/01/27 00:14:44;;;;;;;32.47;12.73;;;;;;;;;;5987276;23;20024;-88
2022/01/27 00:17:13;;;;;;;21.20;10.25;;;;;;;;;;6002579;23;20023;-88
2022/01/27 00:19:40;;;;;;;29.48;10.77;;;;;;;;;;6014427;23;20023;-89
2022/01/27 00:22:06;;;;;;;31.15;14.02;;;;;;;;;;5991968;23;20526;-89
2022/01/27 00:24:32;;;;;;;30.73;13.38;;;;;;;;;;5992071;23;20439;-89
2022/01/27 00:26:59;;;;;;;38.97;13.73;;;;;;;;;;6000827;23;20098;-89
2022/01/27 00:29:25;;;;;;;23.67;10.07;;;;;;;;;;6160772;23;20072;-88
2022/01/27 00:31:51;;;;;;;17.08;10.10;;;;;;;;;;6160968;23;20017;-89
2022/01/27 00:34:17;;;;;;;26.23;13.98;;;;;;;;;;6161093;23;20036;-88
2022/01/27 00:36:43;;;;;;;22.23;11.43;;;;;;;;;;6160618;23;20017;-90
2022/01/27 00:39:09;;;;;;;26.08;11.73;;;;;;;;;;6185307;23;20028;-89
2022/01/27 00:41:36;;;;;;;28.10;12.65;;;;;;;;;;6160127;23;20016;-88
2022/01/27 00:44:02;;;;;;;23.40;12.77;;;;;;;;;;6185661;23;20021;-90
2022/01/27 00:46:31;;;;;;;26.38;12.50;;;;;;;;;;6160390;23;20443;-89
2022/01/27 00:48:57;;;;;;;20.27;9.82;;;;;;;;;;6160587;23;20017;-90
2022/01/27 00:51:28;;;;;;;21.67;12.98;;;;;;;;;;6185216;23;20017;-89
2022/01/27 00:59:25;;;;;;;24.17;11.80;;;;;;;;;;6101278;23;20050;-90
2022/01/27 01:02:05;;;;;;;35.70;13.30;;;;;;;;;;6077104;23;20018;-90
2022/01/27 01:04:35;;;;;;;26.35;10.80;;;;;;;;;;6077069;23;20444;-89
2022/01/27 01:07:01;;;;;;;20.13;9.45;;;;;;;;;;6077737;23;20022;-91
2022/01/27 01:14:53;;;;;;;25.23;11.82;;;;;;;;;;6100751;23;19917;-89
2022/01/27 01:33:10;;;;;;;21.80;11.70;;;;;;;;;;6123273;23;19920;-89
2022/01/27 01:36:35;;;;;;;28.13;14.90;;;;;;;;;;6160059;23;20029;-89
2022/01/27 01:38:26;;;;;;;28.58;14.38;;;;;;;;;;6171503;23;20458;-88
2022/01/27 01:40:52;;;;;;;32.38;14.48;;;;;;;;;;6162259;23;20017;-88
2022/01/27 01:43:20;;;;;;;30.42;14.15;;;;;;;;;;6162363;23;20044;-88
2022/01/27 01:45:46;;;;;;;21.85;13.10;;;;;;;;;;6162632;23;20048;-88
2022/01/27 01:48:12;;;;;;;24.60;13.20;;;;;;;;;;6163010;23;20029;-89
2022/01/27 01:50:39;;;;;;;25.17;13.18;;;;;;;;;;6162869;23;20024;-88
2022/01/27 01:53:05;;;;;;;23.17;12.25;;;;;;;;;;6163293;23;20044;-89
2022/01/27 01:55:32;;;;;;;32.75;14.32;;;;;;;;;;6163459;23;20480;-88
2022/01/27 01:57:58;;;;;;;31.08;15.52;;;;;;;;;;6163410;23;20017;-89
2022/01/27 02:00:25;;;;;;;21.30;12.30;;;;;;;;;;6188237;23;20339;-88
2022/01/27 02:02:51;;;;;;;21.77;12.82;;;;;;;;;;6162637;23;20017;-88
2022/01/27 02:05:19;;;;;;;26.45;14.07;;;;;;;;;;6162228;23;20020;-89
2022/01/27 02:07:59;;;;;;;26.15;13.05;;;;;;;;;;6162496;23;20013;-88
2022/01/27 02:18:30;;;;;;;26.23;13.20;;;;;;;;;;6186837;23;20021;-89
2022/01/27 02:20:56;;;;;;;26.80;14.43;;;;;;;;;;6186437;23;20087;-88
2022/01/27 02:23:22;;;;;;;26.58;15.10;;;;;;;;;;6161781;23;20017;-88
2022/01/27 02:25:48;;;;;;;27.27;14.90;;;;;;;;;;6161218;23;20096;-88
2022/01/27 02:28:14;;;;;;;27.45;14.80;;;;;;;;;;6162339;23;20017;-88
2022/01/27 02:30:40;;;;;;;38.92;14.65;;;;;;;;;;6161643;23;20096;-88
2022/01/27 02:33:06;;;;;;;33.67;15.80;;;;;;;;;;6161454;23;20363;-88
2022/01/27 02:35:33;;;;;;;30.95;13.93;;;;;;;;;;6161490;23;20037;-88
2022/01/27 02:37:59;;;;;;;31.80;16.20;;;;;;;;;;6186372;23;20455;-88
2022/01/27 02:40:48;;;;;;;32.38;15.77;;;;;;;;;;6161455;23;20498;-90
2022/01/27 02:43:14;;;;;;;25.40;14.93;;;;;;;;;;6161674;23;20091;-89
2022/01/27 02:45:46;;;;;;;31.23;15.55;;;;;;;;;;6161449;23;20493;-88
2022/01/27 02:48:13;;;;;;;26.58;15.13;;;;;;;;;;6161296;23;20443;-88
2022/01/27 02:50:39;;;;;;;28.10;14.70;;;;;;;;;;6161556;23;20123;-89
2022/01/27 02:53:07;;;;;;;29.42;16.33;;;;;;;;;;6185877;23;20458;-88
2022/01/27 02:55:33;;;;;;;33.85;16.10;;;;;;;;;;6187621;23;20451;-88
2022/01/27 02:57:59;;;;;;;32.10;17.95;;;;;;;;;;6162021;23;20446;-88
2022/01/27 03:00:25;;;;;;;50.95;17.58;;;;;;;;;;6162317;23;20074;-89
2022/01/27 03:02:51;;;;;;;26.35;14.63;;;;;;;;;;6161979;23;20017;-88
2022/01/27 03:05:18;;;;;;;33.85;16.83;;;;;;;;;;6186703;23;20096;-87
2022/01/27 03:07:48;;;;;;;36.30;17.30;;;;;;;;;;6186657;23;20068;-90
2022/01/27 03:10:17;;;;;;;24.00;13.38;;;;;;;;;;6187167;23;20059;-90
2022/01/27 03:12:44;;;;;;;38.45;16.98;;;;;;;;;;6185852;23;20013;-88
2022/01/27 03:15:13;;;;;;;33.28;15.13;;;;;;;;;;6160735;23;20071;-89
2022/01/27 03:17:39;;;;;;;27.30;14.60;;;;;;;;;;6160924;23;20024;-88
2022/01/27 03:20:07;;;;;;;33.90;16.42;;;;;;;;;;6185680;23;20067;-88
2022/01/27 03:22:33;;;;;;;27.15;16.90;;;;;;;;;;6186076;23;20516;-89
2022/01/27 03:24:59;;;;;;;33.55;16.90;;;;;;;;;;6161513;23;20462;-88
2022/01/27 03:27:26;;;;;;;34.70;14.07;;;;;;;;;;6160930;23;20017;-87
2022/01/27 03:29:53;;;;;;;34.72;15.52;;;;;;;;;;6160805;23;20021;-87
2022/01/27 03:32:19;;;;;;;30.45;14.20;;;;;;;;;;6160941;23;20064;-88
2022/01/27 03:34:45;;;;;;;30.42;15.48;;;;;;;;;;6160629;23;20077;-88
2022/01/27 03:37:11;;;;;;;30.13;13.45;;;;;;;;;;6160724;23;20397;-88
2022/01/27 03:39:38;;;;;;;31.48;15.63;;;;;;;;;;6161007;23;20398;-88
2022/01/27 03:42:05;;;;;;;26.08;14.25;;;;;;;;;;6160758;23;20103;-88
2022/01/27 03:44:31;;;;;;;32.17;15.18;;;;;;;;;;6185673;23;20103;-88
2022/01/27 03:46:58;;;;;;;23.27;11.65;;;;;;;;;;6161008;23;20013;-88
2022/01/27 03:49:24;;;;;;;31.27;14.18;;;;;;;;;;6185453;23;20017;-88
2022/01/27 03:51:50;;;;;;;27.17;14.45;;;;;;;;;;6185244;23;20028;-88
2022/01/27 03:54:17;;;;;;;34.60;15.52;;;;;;;;;;6160306;23;20079;-88
2022/01/27 03:56:43;;;;;;;32.72;13.35;;;;;;;;;;6160728;23;20411;-88
2022/01/27 03:59:09;;;;;;;33.28;16.30;;;;;;;;;;6185109;23;20020;-88
2022/01/27 04:01:36;;;;;;;20.50;10.05;;;;;;;;;;6160736;23;20092;-88
2022/01/27 04:04:02;;;;;;;31.58;14.02;;;;;;;;;;6160576;23;20072;-88
2022/01/27 04:06:34;;;;;;;26.92;13.98;;;;;;;;;;6185422;23;20017;-87
2022/01/27 04:09:01;;;;;;;34.65;14.25;;;;;;;;;;6185540;23;20056;-88
2022/01/27 04:11:27;;;;;;;27.55;14.43;;;;;;;;;;6160254;23;20024;-88
2022/01/27 04:13:53;;;;;;;28.27;14.20;;;;;;;;;;6160441;23;20036;-87
2022/01/27 04:16:19;;;;;;;21.77;10.40;;;;;;;;;;6160519;23;20039;-88
2022/01/27 04:18:48;;;;;;;25.08;13.80;;;;;;;;;;6185201;23;20013;-88
2022/01/27 04:21:15;;;;;;;19.85;9.65;;;;;;;;;;6185577;23;20461;-88
2022/01/27 04:23:42;;;;;;;34.53;13.68;;;;;;;;;;6185183;23;20025;-86
2022/01/27 04:26:08;;;;;;;32.78;15.27;;;;;;;;;;6160396;23;20017;-88
2022/01/27 04:28:37;;;;;;;28.95;11.43;;;;;;;;;;6185915;23;20020;-89
2022/01/27 04:31:04;;;;;;;19.63;11.35;;;;;;;;;;6185389;23;20021;-87
2022/01/27 04:33:32;;;;;;;29.23;14.85;;;;;;;;;;6185326;23;20069;-87
2022/01/27 04:36:02;;;;;;;38.50;13.07;;;;;;;;;;6160132;23;20021;-87
2022/01/27 04:38:42;;;;;;;30.10;12.57;;;;;;;;;;6161233;23;20017;-88
2022/01/27 04:46:27;;;;;;;31.25;11.95;;;;;;;;;;6185780;23;20024;-87
2022/01/27 04:48:58;;;;;;;26.52;13.25;;;;;;;;;;6161147;23;20024;-87
2022/01/27 04:51:24;;;;;;;26.10;13.80;;;;;;;;;;6160989;23;20021;-89
2022/01/27 04:56:24;;;;;;;21.63;11.82;;;;;;;;;;6187010;23;20025;-90
2022/01/27 04:58:56;;;;;;;28.52;12.38;;;;;;;;;;6185603;23;20485;-89
2022/01/27 05:01:29;;;;;;;23.70;11.88;;;;;;;;;;6160923;23;20021;-91
2022/01/27 05:04:07;;;;;;;28.10;12.57;;;;;;;;;;6160825;23;20514;-89
2022/01/27 05:06:33;;;;;;;31.25;12.32;;;;;;;;;;6160928;23;20024;-91
2022/01/27 05:08:59;;;;;;;27.02;12.63;;;;;;;;;;6185474;23;20049;-90
2022/01/27 05:11:32;;;;;;;22.67;10.82;;;;;;;;;;6160977;23;20017;-90
2022/01/27 05:14:08;;;;;;;33.10;12.10;;;;;;;;;;6163403;23;20017;-91
2022/01/27 05:16:34;;;;;;;26.58;12.60;;;;;;;;;;6162903;23;20020;-89
2022/01/27 05:19:01;;;;;;;32.80;12.07;;;;;;;;;;6161948;23;20013;-91
2022/01/27 05:21:27;;;;;;;20.88;10.93;;;;;;;;;;6162356;23;20025;-90
2022/01/27 05:23:53;;;;;;;24.80;12.15;;;;;;;;;;6162471;23;20079;-91
2022/01/27 05:26:19;;;;;;;30.73;12.10;;;;;;;;;;6162901;23;20013;-90
2022/01/27 05:28:45;;;;;;;19.58;9.50;;;;;;;;;;6164031;23;20036;-92
2022/01/27 05:31:11;;;;;;;23.02;11.35;;;;;;;;;;6162128;23;20021;-91
2022/01/27 05:33:37;;;;;;;16.58;10.52;;;;;;;;;;6163107;23;20017;-91
2022/01/27 05:36:03;;;;;;;31.00;12.63;;;;;;;;;;6162586;23;20028;-90
2022/01/27 05:38:29;;;;;;;28.38;12.45;;;;;;;;;;6162202;23;20020;-90
2022/01/27 05:40:55;;;;;;;21.02;9.70;;;;;;;;;;6163840;23;20021;-91
2022/01/27 05:43:22;;;;;;;29.10;10.45;;;;;;;;;;6162422;23;20017;-90
2022/01/27 05:45:48;;;;;;;24.15;9.98;;;;;;;;;;6163267;23;20017;-90
2022/01/27 05:48:14;;;;;;;29.45;12.63;;;;;;;;;;6163273;23;20013;-91
2022/01/27 05:50:40;;;;;;;34.75;12.20;;;;;;;;;;6163489;23;20052;-90
2022/01/27 05:53:06;;;;;;;26.98;12.23;;;;;;;;;;6161994;23;20024;-90
2022/01/27 05:55:32;;;;;;;22.38;11.40;;;;;;;;;;6162140;23;20021;-90
2022/01/27 05:57:58;;;;;;;31.15;12.73;;;;;;;;;;6162033;23;20343;-90
2022/01/27 06:00:24;;;;;;;31.77;14.10;;;;;;;;;;6163508;23;20024;-90
2022/01/27 06:02:51;;;;;;;35.97;12.38;;;;;;;;;;6162685;23;20017;-90
2022/01/27 06:05:17;;;;;;;34.03;12.48;;;;;;;;;;6162560;23;20024;-89
2022/01/27 06:07:43;;;;;;;25.80;13.40;;;;;;;;;;6162886;23;20023;-90
2022/01/27 06:10:09;;;;;;;23.48;10.15;;;;;;;;;;6163703;23;20013;-90
2022/01/27 06:12:44;;;;;;;19.83;11.00;;;;;;;;;;6163430;23;20024;-92
2022/01/27 06:15:10;;;;;;;30.10;13.45;;;;;;;;;;6163817;23;20043;-90
2022/01/27 06:17:36;;;;;;;28.17;12.60;;;;;;;;;;6164800;23;20017;-93
2022/01/27 06:20:03;;;;;;;30.30;12.05;;;;;;;;;;6171603;23;20017;-94
2022/01/27 06:22:29;;;;;;;31.27;11.77;;;;;;;;;;6162823;23;20017;-93
2022/01/27 06:24:55;;;;;;;26.85;11.20;;;;;;;;;;6163062;23;20020;-93
2022/01/27 06:27:25;;;;;;;27.60;10.38;;;;;;;;;;6164380;23;20043;-93
2022/01/27 06:29:51;;;;;;;14.75;9.20;;;;;;;;;;6163162;23;20021;-93
2022/01/27 06:32:17;;;;;;;23.23;9.27;;;;;;;;;;6187875;23;20442;-93
2022/01/27 06:34:43;;;;;;;24.58;10.70;;;;;;;;;;6188710;23;20024;-92
2022/01/27 06:37:09;;;;;;;25.02;10.52;;;;;;;;;;6163748;23;20024;-92
2022/01/27 06:39:35;;;;;;;16.25;9.93;;;;;;;;;;6163582;23;20059;-92
2022/01/27 06:42:02;;;;;;;16.67;8.63;;;;;;;;;;6187525;23;20075;-92
2022/01/27 06:44:29;;;;;;;28.20;11.10;;;;;;;;;;6188081;23;20020;-93
2022/01/27 06:46:55;;;;;;;22.08;8.95;;;;;;;;;;6163366;23;20021;-92
2022/01/27 06:49:23;;;;;;;30.88;11.82;;;;;;;;;;6188209;23;20092;-91
2022/01/27 06:51:49;;;;;;;30.55;10.90;;;;;;;;;;6162707;23;20351;-91
2022/01/27 06:54:16;;;;;;;30.58;12.27;;;;;;;;;;6163202;23;20045;-92
2022/01/27 06:56:43;;;;;;;23.08;11.73;;;;;;;;;;6162880;23;20017;-91
2022/01/27 06:59:09;;;;;;;24.95;11.73;;;;;;;;;;6163540;23;20048;-92
2022/01/27 07:01:35;;;;;;;21.50;10.88;;;;;;;;;;6161727;23;20017;-91
2022/01/27 07:04:02;;;;;;;18.10;8.25;;;;;;;;;;6161536;23;20087;-91
2022/01/27 07:06:28;;;;;;;19.70;9.40;;;;;;;;;;6186698;23;20017;-91
2022/01/27 07:08:54;;;;;;;19.13;8.27;;;;;;;;;;6186643;23;20021;-90
2022/01/27 07:11:20;;;;;;;20.60;9.25;;;;;;;;;;6187065;23;20442;-91
2022/01/27 07:13:46;;;;;;;21.45;10.20;;;;;;;;;;6186797;23;20012;-90
2022/01/27 07:16:12;;;;;;;20.73;9.30;;;;;;;;;;6161874;23;20052;-91
2022/01/27 07:18:38;;;;;;;22.55;8.45;;;;;;;;;;6186655;23;20013;-90
2022/01/27 07:21:05;;;;;;;24.67;9.32;;;;;;;;;;6186438;23;20028;-90
2022/01/27 07:23:31;;;;;;;28.95;10.55;;;;;;;;;;6185637;23;20021;-91
2022/01/27 07:25:57;;;;;;;22.90;10.07;;;;;;;;;;6186259;23;20032;-89
2022/01/27 07:28:23;;;;;;;21.30;9.50;;;;;;;;;;6161434;23;20053;-89
2022/01/27 07:30:49;;;;;;;16.10;9.85;;;;;;;;;;6186213;23;20052;-89
2022/01/27 07:33:15;;;;;;;25.48;9.35;;;;;;;;;;6186333;23;20017;-90
2022/01/27 07:35:41;;;;;;;24.60;10.18;;;;;;;;;;6186635;23;20021;-89
2022/01/27 07:38:07;;;;;;;25.17;9.13;;;;;;;;;;6186869;23;20477;-89
2022/01/27 07:40:34;;;;;;;24.92;9.57;;;;;;;;;;6187788;23;20021;-89
2022/01/27 07:43:00;;;;;;;21.73;9.55;;;;;;;;;;6186004;23;20012;-89
2022/01/27 07:45:26;;;;;;;18.80;9.13;;;;;;;;;;6186577;23;20059;-89
2022/01/27 07:47:58;;;;;;;19.38;8.73;;;;;;;;;;6188300;23;20013;-90
2022/01/27 07:50:29;;;;;;;27.52;8.63;;;;;;;;;;6187955;23;20111;-89
2022/01/27 07:53:01;;;;;;;20.08;8.57;;;;;;;;;;6126649;23;20073;-90
2022/01/27 07:55:27;;;;;;;17.85;8.60;;;;;;;;;;6077343;23;20029;-90
2022/01/27 07:58:13;;;;;;;22.08;8.25;;;;;;;;;;6078036;23;20029;-90
2022/01/27 08:00:51;;;;;;;27.98;8.77;;;;;;;;;;6101905;23;20030;-90
2022/01/27 08:03:20;;;;;;;28.77;8.70;;;;;;;;;;6077748;23;20049;-90
2022/01/27 08:05:48;;;;;;;16.40;8.05;;;;;;;;;;6103094;23;20068;-91
2022/01/27 08:08:15;;;;;;;21.52;8.75;;;;;;;;;;6103159;23;20089;-90
2022/01/27 08:10:48;;;;;;;34.75;8.50;;;;;;;;;;6078363;23;20018;-91
2022/01/27 08:13:21;;;;;;;23.57;9.57;;;;;;;;;;6078274;23;20109;-93
2022/01/27 08:15:52;;;;;;;23.75;7.28;;;;;;;;;;6077812;23;20216;-92
2022/01/27 08:18:21;;;;;;;25.63;7.82;;;;;;;;;;6079319;23;20019;-92
2022/01/27 08:20:55;;;;;;;26.20;7.88;;;;;;;;;;6079105;23;20583;-91
2022/01/27 08:23:30;;;;;;;25.00;6.90;;;;;;;;;;6099442;23;20017;-92
2022/01/27 08:26:06;;;;;;;22.42;6.93;;;;;;;;;;6187759;23;20048;-91
2022/01/27 08:28:51;;;;;;;17.03;7.20;;;;;;;;;;6188708;23;20013;-92
2022/01/27 08:34:33;;;;;;;18.73;6.80;;;;;;;;;;6186312;23;20388;-91
2022/01/27 08:37:00;;;;;;;18.40;7.07;;;;;;;;;;6186203;23;20017;-90
2022/01/27 08:39:26;;;;;;;16.88;7.82;;;;;;;;;;6186661;23;20116;-90
2022/01/27 08:41:53;;;;;;;22.45;8.50;;;;;;;;;;6186793;23;20462;-91
2022/01/27 08:44:19;;;;;;;19.33;6.00;;;;;;;;;;6187653;23;20056;-90
2022/01/27 08:46:45;;;;;;;20.48;6.25;;;;;;;;;;6186399;23;20462;-90
2022/01/27 08:49:12;;;;;;;26.67;6.68;;;;;;;;;;6185922;23;20017;-90
2022/01/27 08:51:38;;;;;;;24.20;7.38;;;;;;;;;;6186353;23;20047;-90
2022/01/27 08:54:04;;;;;;;19.83;6.05;;;;;;;;;;6185866;23;20045;-90
2022/01/27 08:56:30;;;;;;;25.70;7.47;;;;;;;;;;6186441;23;20025;-90
2022/01/27 08:58:57;;;;;;;23.85;7.55;;;;;;;;;;6187415;23;20021;-90
2022/01/27 09:01:26;;;;;;;20.60;6.07;;;;;;;;;;6186942;23;20056;-90
2022/01/27 09:03:52;;;;;;;14.98;5.72;;;;;;;;;;6185926;23;20017;-91
2022/01/27 09:06:19;;;;;;;23.38;6.18;;;;;;;;;;6186394;23;20103;-91
2022/01/27 09:08:45;;;;;;;17.08;5.60;;;;;;;;;;6187346;23;20104;-90
2022/01/27 09:11:12;;;;;;;17.13;5.03;;;;;;;;;;6185191;23;20020;-90
2022/01/27 09:13:38;;;;;;;15.93;6.55;;;;;;;;;;6186940;23;20092;-90
2022/01/27 09:16:07;;;;;;;17.73;5.70;;;;;;;;;;6185819;23;20099;-88
2022/01/27 09:18:33;;;;;;;20.35;5.53;;;;;;;;;;6185862;23;20385;-88
2022/01/27 09:21:03;;;;;;;15.05;5.35;;;;;;;;;;6186263;23;20017;-88
2022/01/27 09:23:29;;;;;;;8.55;4.90;;;;;;;;;;6185973;23;20049;-88
2022/01/27 09:26:02;;;;;;;23.58;6.82;;;;;;;;;;6185793;23;20040;-87
2022/01/27 09:28:28;;;;;;;20.08;4.65;;;;;;;;;;6186004;23;20017;-87
2022/01/27 09:30:56;;;;;;;13.05;4.78;;;;;;;;;;6185860;23;20087;-87
2022/01/27 09:33:22;;;;;;;11.07;4.82;;;;;;;;;;6185818;23;20458;-87
2022/01/27 09:35:48;;;;;;;19.70;4.57;;;;;;;;;;6185421;23;20017;-87
2022/01/27 09:38:16;;;;;;;11.43;5.20;;;;;;;;;;6185224;23;20017;-87
2022/01/27 09:40:46;;;;;;;15.68;5.30;;;;;;;;;;6186786;23;20021;-88
2022/01/27 09:43:13;;;;;;;18.10;5.80;;;;;;;;;;6171119;23;20018;-91
2022/01/27 09:45:40;;;;;;;21.77;6.45;;;;;;;;;;6132663;23;20026;-89
2022/01/27 09:48:15;;;;;;;19.60;5.60;;;;;;;;;;6131817;23;20025;-88
2022/01/27 09:53:13;;;;;;;14.35;4.70;;;;;;;;;;6131100;23;20053;-90
2022/01/27 09:55:39;;;;;;;11.18;3.65;;;;;;;;;;6131916;23;20040;-90
2022/01/27 09:58:06;;;;;;;9.88;4.03;;;;;;;;;;6132257;23;20049;-90
2022/01/27 10:00:33;;;;;;;18.75;5.35;;;;;;;;;;6133250;23;20017;-91
2022/01/27 10:03:09;;;;;;;12.63;4.82;;;;;;;;;;6132646;23;20017;-91
2022/01/27 10:05:36;;;;;;;14.07;4.03;;;;;;;;;;6134930;23;20021;-93
2022/01/27 10:08:21;;;;;;;29.08;6.00;;;;;;;;;;6133465;23;20014;-92
2022/01/27 10:10:49;;;;;;;11.48;3.70;;;;;;;;;;6134140;23;20017;-89
2022/01/27 10:13:31;;;;;;;23.58;4.93;;;;;;;;;;6132622;23;20097;-91
2022/01/27 10:15:57;;;;;;;10.13;5.18;;;;;;;;;;6133115;23;20450;-90
2022/01/27 10:18:27;;;;;;;9.40;4.00;;;;;;;;;;6136701;23;20068;-89
2022/01/27 10:20:59;;;;;;;14.13;4.78;;;;;;;;;;6133480;23;20021;-92
2022/01/27 10:23:33;;;;;;;18.45;4.88;;;;;;;;;;6132920;23;20014;-92
2022/01/27 10:26:09;;;;;;;16.33;4.28;;;;;;;;;;6136092;23;20067;-92
2022/01/27 10:28:47;;;;;;;13.23;4.57;;;;;;;;;;6133015;23;20013;-89
2022/01/27 10:31:19;;;;;;;24.35;5.35;;;;;;;;;;6103195;23;20400;-89
2022/01/27 10:33:53;;;;;;;9.30;3.47;;;;;;;;;;6103937;23;20045;-92
2022/01/27 10:36:19;;;;;;;21.60;6.75;;;;;;;;;;6104502;23;20018;-93
2022/01/27 10:38:50;;;;;;;14.32;4.47;;;;;;;;;;6104730;23;20444;-95
2022/01/27 10:41:29;;;;;;;13.23;3.90;;;;;;;;;;6105244;23;20056;-91
2022/01/27 10:44:16;;;;;;;9.90;4.53;;;;;;;;;;6103003;23;20022;-89
2022/01/27 10:47:00;;;;;;;14.35;4.75;;;;;;;;;;6102897;23;20470;-91
2022/01/27 10:49:30;;;;;;;17.02;4.32;;;;;;;;;;6104260;23;20021;-91
2022/01/27 10:51:57;;;;;;;10.07;3.72;;;;;;;;;;6104733;23;20045;-89
2022/01/27 10:54:37;;;;;;;16.08;4.63;;;;;;;;;;6103499;23;20022;-89
2022/01/27 10:57:04;;;;;;;15.32;4.45;;;;;;;;;;6103801;23;20542;-88
2022/01/27 10:59:32;;;;;;;20.83;4.22;;;;;;;;;;6104906;23;20018;-88
2022/01/27 11:01:59;;;;;;;12.60;4.57;;;;;;;;;;6103561;23;20053;-88
2022/01/27 11:04:32;;;;;;;20.10;4.85;;;;;;;;;;6103409;23;20455;-88
2022/01/27 11:07:01;;;;;;;18.85;4.88;;;;;;;;;;6104391;23;20024;-89
2022/01/27 11:09:27;;;;;;;21.05;4.43;;;;;;;;;;6103305;23;20018;-88
2022/01/27 11:11:55;;;;;;;16.40;3.85;;;;;;;;;;6102421;23;20471;-89
2022/01/27 11:14:24;;;;;;;29.38;6.68;;;;;;;;;;6103838;23;20025;-88
2022/01/27 11:16:54;;;;;;;10.52;3.03;;;;;;;;;;6103170;23;20021;-89
2022/01/27 11:19:36;;;;;;;16.13;4.85;;;;;;;;;;6102962;23;20014;-88
2022/01/27 11:25:19;;;;;;;28.02;5.75;;;;;;;;;;6039304;23;20035;-91
2022/01/27 11:27:50;;;;;;;16.20;3.83;;;;;;;;;;6015658;23;20243;-88
2022/01/27 11:30:31;;;;;;;16.88;5.55;;;;;;;;;;6016215;23;20060;-88
2022/01/27 11:33:11;;;;;;;26.20;4.18;;;;;;;;;;6016555;23;20096;-88
2022/01/27 11:35:39;;;;;;;16.10;5.25;;;;;;;;;;6039348;23;20039;-89
2022/01/27 11:38:06;;;;;;;19.98;4.15;;;;;;;;;;6016158;23;20027;-88
2022/01/27 11:40:39;;;;;;;20.95;3.78;;;;;;;;;;6016190;23;20075;-89
2022/01/27 11:43:06;;;;;;;15.48;3.85;;;;;;;;;;6015432;23;20019;-88
2022/01/27 11:45:40;;;;;;;22.88;4.35;;;;;;;;;;6038404;23;20502;-88
2022/01/27 11:48:14;;;;;;;17.77;3.33;;;;;;;;;;6016143;23;20528;-89
2022/01/27 11:50:59;;;;;;;32.83;5.68;;;;;;;;;;6014789;23;20048;-89
2022/01/27 11:53:45;;;;;;;8.98;2.88;;;;;;;;;;6038423;23;20027;-90
2022/01/27 11:56:27;;;;;;;10.25;3.92;;;;;;;;;;6015681;23;20082;-89
2022/01/27 11:58:54;;;;;;;14.68;4.00;;;;;;;;;;6015624;23;20359;-90
2022/01/27 12:01:25;;;;;;;16.52;5.78;;;;;;;;;;6063300;23;20025;-89
2022/01/27 12:04:09;;;;;;;11.93;4.53;;;;;;;;;;6101718;23;20092;-89
2022/01/27 12:06:47;;;;;;;19.67;4.60;;;;;;;;;;6126613;23;20182;-88
2022/01/27 12:09:22;;;;;;;13.73;3.90;;;;;;;;;;6102028;23;20021;-90
2022/01/27 12:11:59;;;;;;;18.73;4.00;;;;;;;;;;6103615;23;20100;-88
2022/01/27 12:14:34;;;;;;;17.10;4.95;;;;;;;;;;6102132;23;20018;-90
2022/01/27 12:17:13;;;;;;;10.77;4.45;;;;;;;;;;6102218;23;20018;-90
2022/01/27 12:19:58;;;;;;;24.05;4.28;;;;;;;;;;6118124;23;20018;-89
2022/01/27 12:22:25;;;;;;;21.85;3.97;;;;;;;;;;6161514;23;20075;-90
2022/01/27 12:24:52;;;;;;;19.85;4.80;;;;;;;;;;6161483;23;20039;-90
2022/01/27 12:27:18;;;;;;;19.17;4.43;;;;;;;;;;6161316;23;20024;-89
2022/01/27 12:29:52;;;;;;;16.52;4.63;;;;;;;;;;6143944;23;20148;-89
2022/01/27 12:32:23;;;;;;;19.63;5.00;;;;;;;;;;6131664;23;20022;-88
2022/01/27 12:34:58;;;;;;;12.70;4.47;;;;;;;;;;6132276;23;20021;-89
2022/01/27 12:37:25;;;;;;;21.67;4.63;;;;;;;;;;6131426;23;20076;-90
2022/01/27 12:39:51;;;;;;;12.88;3.78;;;;;;;;;;6132728;23;20018;-89
2022/01/27 12:42:20;;;;;;;16.52;4.30;;;;;;;;;;6131531;23;20024;-90
2022/01/27 12:45:02;;;;;;;11.75;4.32;;;;;;;;;;6133751;23;20078;-89
2022/01/27 12:47:29;;;;;;;30.38;5.80;;;;;;;;;;6133172;23;20017;-90
2022/01/27 12:50:29;;;;;;;11.52;3.50;;;;;;;;;;6131268;23;20024;-90
2022/01/27 12:52:51;;;;;;;14.02;3.53;;;;;;;;;;6129643;23;20018;-92
2022/01/27 12:55:21;;;;;;;24.13;4.15;;;;;;;;;;6133273;23;20088;-92
2022/01/27 12:57:55;;;;;;;10.95;4.05;;;;;;;;;;6132913;23;20057;-90
2022/01/27 13:00:21;;;;;;;16.10;4.00;;;;;;;;;;6158529;23;20017;-90
2022/01/27 13:02:47;;;;;;;17.20;4.07;;;;;;;;;;6131741;23;20072;-88
2022/01/27 13:05:13;;;;;;;16.92;3.80;;;;;;;;;;6131058;23;20025;-89
2022/01/27 13:07:42;;;;;;;16.60;4.75;;;;;;;;;;6131226;23;20010;-88
2022/01/27 13:10:15;;;;;;;21.60;3.90;;;;;;;;;;6131249;23;20021;-89
2022/01/27 13:13:05;;;;;;;20.23;4.82;;;;;;;;;;6131884;23;20021;-91
2022/01/27 13:15:34;;;;;;;20.88;5.55;;;;;;;;;;6131078;23;20076;-90
2022/01/27 13:18:07;;;;;;;14.57;3.80;;;;;;;;;;6132222;23;20017;-91
2022/01/27 13:23:05;;;;;;;15.73;4.32;;;;;;;;;;6130781;23;20201;-90
2022/01/27 13:25:42;;;;;;;14.95;3.80;;;;;;;;;;6130957;23;20018;-90
2022/01/27 13:28:10;;;;;;;15.27;4.32;;;;;;;;;;6130380;23;20049;-89
2022/01/27 13:30:37;;;;;;;23.67;4.55;;;;;;;;;;6132369;23;20072;-90
2022/01/27 13:33:06;;;;;;;16.40;3.40;;;;;;;;;;6132258;23;20068;-91
2022/01/27 13:35:34;;;;;;;18.10;3.45;;;;;;;;;;6133307;23;20021;-90
2022/01/27 13:38:20;;;;;;;17.75;4.10;;;;;;;;;;6133409;23;20333;-88
2022/01/27 13:43:40;;;;;;;20.05;4.50;;;;;;;;;;6133127;23;20024;-92
2022/01/27 13:46:06;;;;;;;16.52;3.70;;;;;;;;;;6132863;23;20023;-89
2022/01/27 13:48:40;;;;;;;19.63;3.85;;;;;;;;;;6132626;23;20018;-90
2022/01/27 13:51:06;;;;;;;;;;;9.00;99.90;;;;;;6133190;23;20463;-91
2022/01/27 13:53:32;;;;;;;23.45;4.35;;;;;;;;;;6133501;23;19944;-90
2022/01/27 13:55:59;;;;;;;21.67;4.30;;;;;;;;;;6133089;23;20024;-90
2022/01/27 13:58:27;;;;;;;15.85;3.47;;;;;;;;;;6132771;23;20017;-90
2022/01/27 14:01:03;;;;;;;14.48;3.22;;;;;;;;;;6132622;23;20124;-89
2022/01/27 14:03:39;;;;;;;25.20;5.35;;;;;;;;;;6132545;23;20343;-89
2022/01/27 14:06:06;;;;;;;21.95;4.70;;;;;;;;;;6133121;23;20026;-90
2022/01/27 14:08:36;;;;;;;21.00;4.00;;;;;;;;;;6132871;23;20094;-90
2022/01/27 14:11:02;;;;;;;19.80;4.65;;;;;;;;;;6132612;23;20017;-89
2022/01/27 14:13:28;;;;;;;13.35;2.92;;;;;;;;;;6132120;23;20021;-90
2022/01/27 14:15:54;;;;;;;14.00;4.70;;;;;;;;;;6133069;23;20100;-89
2022/01/27 14:18:22;;;;;;;20.98;4.25;;;;;;;;;;6132306;23;20020;-89
2022/01/27 14:20:58;;;;;;;31.08;5.13;;;;;;;;;;6132247;23;20028;-89
2022/01/27 14:23:46;;;;;;;21.65;4.15;;;;;;;;;;6133254;23;20029;-92
2022/01/27 14:26:26;;;;;;;24.77;4.53;;;;;;;;;;6132045;23;20020;-90
2022/01/27 14:28:55;;;;;;;26.40;4.47;;;;;;;;;;6132671;23;20021;-87
2022/01/27 14:31:21;;;;;;;13.70;3.75;;;;;;;;;;6132157;23;20017;-90
2022/01/27 14:33:47;;;;;;;16.08;4.25;;;;;;;;;;6132265;23;20014;-91
2022/01/27 14:36:14;;;;;;;18.88;3.67;;;;;;;;;;6132925;23;20021;-90
2022/01/27 14:38:41;;;;;;;16.77;4.72;;;;;;;;;;6133031;23;20020;-91
2022/01/27 14:41:08;;;;;;;11.65;4.18;;;;;;;;;;6133187;23;20050;-88
2022/01/27 14:43:37;;;;;;;16.48;3.97;;;;;;;;;;6132757;23;20076;-88
2022/01/27 14:46:03;;;;;;;44.95;4.93;;;;;;;;;;6132480;23;20018;-89
2022/01/27 14:48:32;;;;;;;21.48;5.18;;;;;;;;;;6133731;23;20439;-88
2022/01/27 14:50:58;;;;;;;16.13;4.32;;;;;;;;;;6133580;23;20533;-89
2022/01/27 14:53:24;;;;;;;18.77;4.43;;;;;;;;;;6134013;23;20040;-89
2022/01/27 14:55:51;;;;;;;28.75;5.78;;;;;;;;;;6132995;23;20021;-88
2022/01/27 14:58:17;;;;;;;21.13;4.47;;;;;;;;;;6132807;23;20020;-89
2022/01/27 15:00:43;;;;;;;14.75;3.65;;;;;;;;;;6132018;23;20336;-90
2022/01/27 15:03:09;;;;;;;12.13;3.63;;;;;;;;;;6131756;23;20018;-90
2022/01/27 15:05:35;;;;;;;22.73;4.50;;;;;;;;;;6132103;23;20018;-89
2022/01/27 15:08:02;;;;;;;23.33;5.00;;;;;;;;;;6133226;23;20024;-90
2022/01/27 15:10:28;;;;;;;14.35;3.33;;;;;;;;;;6132097;23;20059;-88
2022/01/27 15:12:55;;;;;;;15.60;4.22;;;;;;;;;;6132796;23;20144;-90
2022/01/27 15:21:00;;;;;;;14.93;3.45;;;;;;;;;;6131914;23;20056;-91
2022/01/27 15:23:27;;;;;;;12.32;3.17;;;;;;;;;;6132549;23;20022;-89
2022/01/27 15:25:55;;;;;;;15.98;3.22;;;;;;;;;;6133309;23;20017;-94
2022/01/27 15:28:21;;;;;;;13.85;3.78;;;;;;;;;;6132618;23;20502;-91
2022/01/27 15:30:47;;;;;;;21.33;4.50;;;;;;;;;;6132288;23;20017;-89
2022/01/27 15:33:14;;;;;;;17.17;4.88;;;;;;;;;;6132044;23;20068;-90
2022/01/27 15:35:42;;;;;;;20.25;5.13;;;;;;;;;;6131664;23;20053;-90
2022/01/27 15:38:14;;;;;;;12.75;4.10;;;;;;;;;;6131670;23;20100;-91
2022/01/27 15:40:42;;;;;;;21.85;5.18;;;;;;;;;;6134018;23;20036;-91
2022/01/27 15:43:08;;;;;;;15.98;4.65;;;;;;;;;;6133312;23;20013;-90
2022/01/27 15:45:34;;;;;;;23.95;4.50;;;;;;;;;;6132887;23;20526;-89